sensor_id;sensor_type;location;lat;lon;timestamp;P1;durP1;ratioP1;P2;durP2;ratioP2
41881;SDS011;27562;47.524;12.404;2023-10-31T00:00:47;2.60;;;0.82;;
41881;SDS011;27562;47.524;12.404;2023-10-31T00:03:13;2.72;;;0.85;;
41881;SDS011;27562;47.524;12.404;2023-10-31T00:05:39;3.97;;;1.10;;
41881;SDS011;27562;47.524;12.404;2023-10-31T00:08:05;3.55;;;0.90;;
41881;SDS011;27562;47.524;12.404;2023-10-31T00:10:30;2.05;;;1.00;;
41881;SDS011;27562;47.524;12.404;2023-10-31T00:12:56;3.05;;;0.80;;
41881;SDS011;27562;47.524;12.404;2023-10-31T00:15:22;2.10;;;0.90;;
41881;SDS011;27562;47.524;12.404;2023-10-31T00:17:49;2.28;;;0.60;;
41881;SDS011;27562;47.524;12.404;2023-10-31T00:20:15;1.48;;;0.50;;
41881;SDS011;27562;47.524;12.404;2023-10-31T00:22:45;1.67;;;0.50;;
41881;SDS011;27562;47.524;12.404;2023-10-31T00:25:10;0.45;;;0.32;;
41881;SDS011;27562;47.524;12.404;2023-10-31T00:27:36;0.80;;;0.40;;
41881;SDS011;27562;47.524;12.404;2023-10-31T00:30:02;0.55;;;0.22;;
41881;SDS011;27562;47.524;12.404;2023-10-31T00:32:28;0.38;;;0.22;;
41881;SDS011;27562;47.524;12.404;2023-10-31T00:34:54;0.10;;;0.10;;
41881;SDS011;27562;47.524;12.404;2023-10-31T00:37:20;0.30;;;0.20;;
41881;SDS011;27562;47.524;12.404;2023-10-31T00:39:45;0.10;;;0.10;;
41881;SDS011;27562;47.524;12.404;2023-10-31T00:42:11;0.15;;;0.13;;
41881;SDS011;27562;47.524;12.404;2023-10-31T00:44:36;0.63;;;0.17;;
41881;SDS011;27562;47.524;12.404;2023-10-31T00:47:02;0.10;;;0.10;;
41881;SDS011;27562;47.524;12.404;2023-10-31T00:49:30;1.65;;;0.10;;
41881;SDS011;27562;47.524;12.404;2023-10-31T00:51:55;0.20;;;0.10;;
41881;SDS011;27562;47.524;12.404;2023-10-31T00:54:22;0.10;;;0.10;;
41881;SDS011;27562;47.524;12.404;2023-10-31T00:56:48;0.10;;;0.10;;
41881;SDS011;27562;47.524;12.404;2023-10-31T00:59:14;0.20;;;0.10;;
41881;SDS011;27562;47.524;12.404;2023-10-31T01:01:39;0.20;;;0.10;;
41881;SDS011;27562;47.524;12.404;2023-10-31T01:04:05;0.00;;;0.00;;
41881;SDS011;27562;47.524;12.404;2023-10-31T01:06:31;0.10;;;0.10;;
41881;SDS011;27562;47.524;12.404;2023-10-31T01:08:57;0.00;;;0.00;;
41881;SDS011;27562;47.524;12.404;2023-10-31T01:11:23;0.03;;;0.03;;
41881;SDS011;27562;47.524;12.404;2023-10-31T01:13:48;0.10;;;0.10;;
41881;SDS011;27562;47.524;12.404;2023-10-31T01:16:14;1.38;;;0.10;;
41881;SDS011;27562;47.524;12.404;2023-10-31T01:18:40;0.00;;;0.00;;
41881;SDS011;27562;47.524;12.404;2023-10-31T01:21:06;0.10;;;0.10;;
41881;SDS011;27562;47.524;12.404;2023-10-31T01:23:31;0.20;;;0.10;;
41881;SDS011;27562;47.524;12.404;2023-10-31T01:25:57;0.35;;;0.10;;
41881;SDS011;27562;47.524;12.404;2023-10-31T01:28:23;0.00;;;0.00;;
41881;SDS011;27562;47.524;12.404;2023-10-31T01:30:48;0.20;;;0.10;;
41881;SDS011;27562;47.524;12.404;2023-10-31T01:33:14;0.35;;;0.10;;
41881;SDS011;27562;47.524;12.404;2023-10-31T01:35:40;0.20;;;0.20;;
41881;SDS011;27562;47.524;12.404;2023-10-31T01:38:06;0.30;;;0.25;;
41881;SDS011;27562;47.524;12.404;2023-10-31T01:40:31;1.20;;;0.30;;
41881;SDS011;27562;47.524;12.404;2023-10-31T01:42:57;0.35;;;0.13;;
41881;SDS011;27562;47.524;12.404;2023-10-31T01:45:23;0.50;;;0.10;;
41881;SDS011;27562;47.524;12.404;2023-10-31T01:47:48;0.20;;;0.20;;
41881;SDS011;27562;47.524;12.404;2023-10-31T01:50:14;0.22;;;0.20;;
41881;SDS011;27562;47.524;12.404;2023-10-31T01:52:41;0.10;;;0.10;;
41881;SDS011;27562;47.524;12.404;2023-10-31T01:55:07;0.20;;;0.20;;
41881;SDS011;27562;47.524;12.404;2023-10-31T01:57:34;0.60;;;0.20;;
41881;SDS011;27562;47.524;12.404;2023-10-31T01:59:59;0.20;;;0.10;;
41881;SDS011;27562;47.524;12.404;2023-10-31T02:02:25;0.15;;;0.10;;
41881;SDS011;27562;47.524;12.404;2023-10-31T02:04:52;0.40;;;0.10;;
41881;SDS011;27562;47.524;12.404;2023-10-31T02:07:18;0.38;;;0.10;;
41881;SDS011;27562;47.524;12.404;2023-10-31T02:09:43;0.20;;;0.13;;
41881;SDS011;27562;47.524;12.404;2023-10-31T02:12:09;0.60;;;0.15;;
41881;SDS011;27562;47.524;12.404;2023-10-31T02:14:35;0.08;;;0.08;;
41881;SDS011;27562;47.524;12.404;2023-10-31T02:17:00;0.10;;;0.10;;
41881;SDS011;27562;47.524;12.404;2023-10-31T02:19:26;0.10;;;0.10;;
41881;SDS011;27562;47.524;12.404;2023-10-31T02:21:52;2.30;;;0.15;;
41881;SDS011;27562;47.524;12.404;2023-10-31T02:24:17;0.35;;;0.00;;
41881;SDS011;27562;47.524;12.404;2023-10-31T02:26:43;0.08;;;0.08;;
41881;SDS011;27562;47.524;12.404;2023-10-31T02:29:09;0.10;;;0.10;;
41881;SDS011;27562;47.524;12.404;2023-10-31T02:31:34;1.02;;;0.30;;
41881;SDS011;27562;47.524;12.404;2023-10-31T02:34:00;0.30;;;0.15;;
41881;SDS011;27562;47.524;12.404;2023-10-31T02:36:25;1.55;;;0.20;;
41881;SDS011;27562;47.524;12.404;2023-10-31T02:38:51;0.35;;;0.15;;
41881;SDS011;27562;47.524;12.404;2023-10-31T02:41:17;0.45;;;0.20;;
41881;SDS011;27562;47.524;12.404;2023-10-31T02:43:43;0.20;;;0.13;;
41881;SDS011;27562;47.524;12.404;2023-10-31T02:46:08;0.45;;;0.20;;
41881;SDS011;27562;47.524;12.404;2023-10-31T02:48:37;0.75;;;0.30;;
41881;SDS011;27562;47.524;12.404;2023-10-31T02:51:07;1.48;;;0.52;;
41881;SDS011;27562;47.524;12.404;2023-10-31T02:53:33;0.45;;;0.22;;
41881;SDS011;27562;47.524;12.404;2023-10-31T02:55:59;0.95;;;0.30;;
41881;SDS011;27562;47.524;12.404;2023-10-31T02:58:25;0.35;;;0.20;;
41881;SDS011;27562;47.524;12.404;2023-10-31T03:00:50;0.43;;;0.20;;
41881;SDS011;27562;47.524;12.404;2023-10-31T03:03:16;0.25;;;0.20;;
41881;SDS011;27562;47.524;12.404;2023-10-31T03:05:42;0.55;;;0.20;;
41881;SDS011;27562;47.524;12.404;2023-10-31T03:08:08;3.72;;;1.75;;
41881;SDS011;27562;47.524;12.404;2023-10-31T03:10:37;18.95;;;7.32;;
41881;SDS011;27562;47.524;12.404;2023-10-31T03:13:04;13.50;;;4.32;;
41881;SDS011;27562;47.524;12.404;2023-10-31T03:15:29;8.27;;;3.60;;
41881;SDS011;27562;47.524;12.404;2023-10-31T03:17:56;17.60;;;8.70;;
41881;SDS011;27562;47.524;12.404;2023-10-31T03:20:21;17.60;;;9.48;;
41881;SDS011;27562;47.524;12.404;2023-10-31T03:22:47;17.30;;;9.75;;
41881;SDS011;27562;47.524;12.404;2023-10-31T03:25:13;14.55;;;8.07;;
41881;SDS011;27562;47.524;12.404;2023-10-31T03:27:38;10.32;;;5.20;;
41881;SDS011;27562;47.524;12.404;2023-10-31T03:30:04;4.13;;;1.90;;
41881;SDS011;27562;47.524;12.404;2023-10-31T03:32:30;3.28;;;1.40;;
41881;SDS011;27562;47.524;12.404;2023-10-31T03:34:56;2.50;;;1.08;;
41881;SDS011;27562;47.524;12.404;2023-10-31T03:37:21;1.55;;;0.70;;
41881;SDS011;27562;47.524;12.404;2023-10-31T03:39:47;0.95;;;0.55;;
41881;SDS011;27562;47.524;12.404;2023-10-31T03:42:13;1.08;;;0.50;;
41881;SDS011;27562;47.524;12.404;2023-10-31T03:44:38;2.22;;;0.57;;
41881;SDS011;27562;47.524;12.404;2023-10-31T03:47:04;0.90;;;0.38;;
41881;SDS011;27562;47.524;12.404;2023-10-31T03:49:30;0.65;;;0.20;;
41881;SDS011;27562;47.524;12.404;2023-10-31T03:51:56;0.82;;;0.20;;
41881;SDS011;27562;47.524;12.404;2023-10-31T03:54:21;1.20;;;0.30;;
41881;SDS011;27562;47.524;12.404;2023-10-31T03:56:47;0.55;;;0.20;;
41881;SDS011;27562;47.524;12.404;2023-10-31T03:59:13;0.43;;;0.20;;
41881;SDS011;27562;47.524;12.404;2023-10-31T04:01:39;0.10;;;0.10;;
41881;SDS011;27562;47.524;12.404;2023-10-31T04:04:05;0.10;;;0.10;;
41881;SDS011;27562;47.524;12.404;2023-10-31T04:06:31;0.08;;;0.08;;
41881;SDS011;27562;47.524;12.404;2023-10-31T04:08:57;0.35;;;0.20;;
41881;SDS011;27562;47.524;12.404;2023-10-31T04:11:23;0.75;;;0.40;;
41881;SDS011;27562;47.524;12.404;2023-10-31T04:13:49;1.55;;;0.80;;
41881;SDS011;27562;47.524;12.404;2023-10-31T04:16:14;0.90;;;0.63;;
41881;SDS011;27562;47.524;12.404;2023-10-31T04:18:40;1.67;;;0.70;;
41881;SDS011;27562;47.524;12.404;2023-10-31T04:21:06;1.23;;;0.45;;
41881;SDS011;27562;47.524;12.404;2023-10-31T04:23:31;1.88;;;0.90;;
41881;SDS011;27562;47.524;12.404;2023-10-31T04:25:57;2.22;;;1.15;;
41881;SDS011;27562;47.524;12.404;2023-10-31T04:28:23;2.47;;;1.40;;
41881;SDS011;27562;47.524;12.404;2023-10-31T04:30:48;1.33;;;0.93;;
41881;SDS011;27562;47.524;12.404;2023-10-31T04:33:14;1.58;;;0.98;;
41881;SDS011;27562;47.524;12.404;2023-10-31T04:35:40;1.50;;;0.80;;
41881;SDS011;27562;47.524;12.404;2023-10-31T04:38:05;2.15;;;0.60;;
41881;SDS011;27562;47.524;12.404;2023-10-31T04:40:31;1.52;;;0.70;;
41881;SDS011;27562;47.524;12.404;2023-10-31T04:42:56;1.55;;;0.80;;
41881;SDS011;27562;47.524;12.404;2023-10-31T04:45:22;1.30;;;0.70;;
41881;SDS011;27562;47.524;12.404;2023-10-31T04:47:48;5.85;;;1.58;;
41881;SDS011;27562;47.524;12.404;2023-10-31T04:50:13;3.25;;;1.40;;
41881;SDS011;27562;47.524;12.404;2023-10-31T04:52:40;2.67;;;0.70;;
41881;SDS011;27562;47.524;12.404;2023-10-31T04:55:05;1.17;;;0.40;;
41881;SDS011;27562;47.524;12.404;2023-10-31T04:57:31;1.00;;;0.30;;
41881;SDS011;27562;47.524;12.404;2023-10-31T04:59:57;0.77;;;0.40;;
41881;SDS011;27562;47.524;12.404;2023-10-31T05:02:24;3.28;;;2.33;;
41881;SDS011;27562;47.524;12.404;2023-10-31T05:04:50;3.47;;;1.00;;
41881;SDS011;27562;47.524;12.404;2023-10-31T05:07:19;1.02;;;0.60;;
41881;SDS011;27562;47.524;12.404;2023-10-31T05:09:45;0.85;;;0.40;;
41881;SDS011;27562;47.524;12.404;2023-10-31T05:12:10;1.00;;;0.28;;
41881;SDS011;27562;47.524;12.404;2023-10-31T05:14:36;0.93;;;0.40;;
41881;SDS011;27562;47.524;12.404;2023-10-31T05:17:02;1.98;;;0.93;;
41881;SDS011;27562;47.524;12.404;2023-10-31T05:19:28;1.35;;;0.68;;
41881;SDS011;27562;47.524;12.404;2023-10-31T05:21:53;1.70;;;0.80;;
41881;SDS011;27562;47.524;12.404;2023-10-31T05:24:19;1.20;;;0.60;;
41881;SDS011;27562;47.524;12.404;2023-10-31T05:26:45;2.33;;;0.80;;
41881;SDS011;27562;47.524;12.404;2023-10-31T05:29:11;1.88;;;0.95;;
41881;SDS011;27562;47.524;12.404;2023-10-31T05:31:37;2.13;;;1.38;;
41881;SDS011;27562;47.524;12.404;2023-10-31T05:34:03;2.15;;;1.10;;
41881;SDS011;27562;47.524;12.404;2023-10-31T05:36:29;2.05;;;0.80;;
41881;SDS011;27562;47.524;12.404;2023-10-31T05:38:55;2.30;;;1.10;;
41881;SDS011;27562;47.524;12.404;2023-10-31T05:41:20;3.00;;;1.10;;
41881;SDS011;27562;47.524;12.404;2023-10-31T05:43:46;5.07;;;3.20;;
41881;SDS011;27562;47.524;12.404;2023-10-31T05:46:12;10.40;;;5.82;;
41881;SDS011;27562;47.524;12.404;2023-10-31T05:48:39;12.02;;;6.53;;
41881;SDS011;27562;47.524;12.404;2023-10-31T05:51:12;25.80;;;15.15;;
41881;SDS011;27562;47.524;12.404;2023-10-31T05:53:44;25.52;;;15.50;;
41881;SDS011;27562;47.524;12.404;2023-10-31T05:56:11;15.23;;;9.15;;
41881;SDS011;27562;47.524;12.404;2023-10-31T05:58:37;9.75;;;4.97;;
41881;SDS011;27562;47.524;12.404;2023-10-31T06:01:04;12.68;;;7.63;;
41881;SDS011;27562;47.524;12.404;2023-10-31T06:03:30;28.77;;;14.27;;
41881;SDS011;27562;47.524;12.404;2023-10-31T06:05:56;42.95;;;22.23;;
41881;SDS011;27562;47.524;12.404;2023-10-31T06:08:21;31.13;;;17.10;;
41881;SDS011;27562;47.524;12.404;2023-10-31T06:13:18;9.27;;;4.85;;
41881;SDS011;27562;47.524;12.404;2023-10-31T06:15:44;3.10;;;2.08;;
41881;SDS011;27562;47.524;12.404;2023-10-31T06:18:10;2.83;;;2.05;;
41881;SDS011;27562;47.524;12.404;2023-10-31T06:20:35;4.28;;;2.00;;
41881;SDS011;27562;47.524;12.404;2023-10-31T06:23:01;2.28;;;1.55;;
41881;SDS011;27562;47.524;12.404;2023-10-31T06:25:30;3.95;;;2.70;;
41881;SDS011;27562;47.524;12.404;2023-10-31T06:27:56;4.82;;;2.92;;
41881;SDS011;27562;47.524;12.404;2023-10-31T06:30:21;5.65;;;3.83;;
41881;SDS011;27562;47.524;12.404;2023-10-31T06:32:49;5.05;;;3.25;;
41881;SDS011;27562;47.524;12.404;2023-10-31T06:35:16;4.28;;;2.40;;
41881;SDS011;27562;47.524;12.404;2023-10-31T06:37:41;8.27;;;4.38;;
41881;SDS011;27562;47.524;12.404;2023-10-31T06:40:07;8.70;;;5.30;;
41881;SDS011;27562;47.524;12.404;2023-10-31T06:42:33;10.63;;;5.55;;
41881;SDS011;27562;47.524;12.404;2023-10-31T06:45:00;11.07;;;6.00;;
41881;SDS011;27562;47.524;12.404;2023-10-31T06:47:25;6.00;;;4.20;;
41881;SDS011;27562;47.524;12.404;2023-10-31T06:49:51;6.55;;;4.70;;
41881;SDS011;27562;47.524;12.404;2023-10-31T06:52:16;6.30;;;2.47;;
41881;SDS011;27562;47.524;12.404;2023-10-31T06:54:42;3.97;;;1.83;;
41881;SDS011;27562;47.524;12.404;2023-10-31T06:57:08;3.80;;;2.08;;
41881;SDS011;27562;47.524;12.404;2023-10-31T06:59:34;9.25;;;4.88;;
41881;SDS011;27562;47.524;12.404;2023-10-31T07:01:59;6.93;;;4.03;;
41881;SDS011;27562;47.524;12.404;2023-10-31T07:04:25;6.70;;;3.95;;
41881;SDS011;27562;47.524;12.404;2023-10-31T07:06:51;6.00;;;3.70;;
41881;SDS011;27562;47.524;12.404;2023-10-31T07:09:25;6.75;;;3.08;;
41881;SDS011;27562;47.524;12.404;2023-10-31T07:11:51;7.00;;;4.03;;
41881;SDS011;27562;47.524;12.404;2023-10-31T07:14:17;11.80;;;7.47;;
41881;SDS011;27562;47.524;12.404;2023-10-31T07:16:43;10.52;;;7.20;;
41881;SDS011;27562;47.524;12.404;2023-10-31T07:19:12;8.00;;;5.35;;
41881;SDS011;27562;47.524;12.404;2023-10-31T07:21:37;5.93;;;4.13;;
41881;SDS011;27562;47.524;12.404;2023-10-31T07:24:03;4.20;;;2.30;;
41881;SDS011;27562;47.524;12.404;2023-10-31T07:26:29;1.88;;;1.33;;
41881;SDS011;27562;47.524;12.404;2023-10-31T07:28:55;2.13;;;1.10;;
41881;SDS011;27562;47.524;12.404;2023-10-31T07:31:21;4.38;;;2.47;;
41881;SDS011;27562;47.524;12.404;2023-10-31T07:33:47;4.75;;;2.55;;
41881;SDS011;27562;47.524;12.404;2023-10-31T07:36:12;6.82;;;3.28;;
41881;SDS011;27562;47.524;12.404;2023-10-31T07:38:38;5.55;;;3.33;;
41881;SDS011;27562;47.524;12.404;2023-10-31T07:41:04;5.25;;;2.40;;
41881;SDS011;27562;47.524;12.404;2023-10-31T07:43:30;4.55;;;2.13;;
41881;SDS011;27562;47.524;12.404;2023-10-31T07:45:55;4.20;;;2.78;;
41881;SDS011;27562;47.524;12.404;2023-10-31T07:48:21;5.22;;;2.75;;
41881;SDS011;27562;47.524;12.404;2023-10-31T07:50:47;3.92;;;2.53;;
41881;SDS011;27562;47.524;12.404;2023-10-31T07:53:12;4.18;;;2.45;;
41881;SDS011;27562;47.524;12.404;2023-10-31T07:55:38;4.00;;;2.15;;
41881;SDS011;27562;47.524;12.404;2023-10-31T07:58:04;3.13;;;1.70;;
41881;SDS011;27562;47.524;12.404;2023-10-31T08:00:29;4.50;;;2.08;;
41881;SDS011;27562;47.524;12.404;2023-10-31T08:02:56;3.05;;;1.77;;
41881;SDS011;27562;47.524;12.404;2023-10-31T08:05:21;9.95;;;4.45;;
41881;SDS011;27562;47.524;12.404;2023-10-31T08:07:47;8.52;;;2.92;;
41881;SDS011;27562;47.524;12.404;2023-10-31T08:10:13;4.60;;;1.80;;
41881;SDS011;27562;47.524;12.404;2023-10-31T08:12:39;2.33;;;1.20;;
41881;SDS011;27562;47.524;12.404;2023-10-31T08:15:05;2.40;;;1.08;;
41881;SDS011;27562;47.524;12.404;2023-10-31T08:17:31;3.17;;;1.55;;
41881;SDS011;27562;47.524;12.404;2023-10-31T08:19:56;1.35;;;0.45;;
41881;SDS011;27562;47.524;12.404;2023-10-31T08:22:22;1.50;;;0.60;;
41881;SDS011;27562;47.524;12.404;2023-10-31T08:24:48;4.15;;;1.58;;
41881;SDS011;27562;47.524;12.404;2023-10-31T08:27:13;6.13;;;2.13;;
41881;SDS011;27562;47.524;12.404;2023-10-31T08:29:39;4.40;;;1.58;;
41881;SDS011;27562;47.524;12.404;2023-10-31T08:32:05;3.55;;;1.20;;
41881;SDS011;27562;47.524;12.404;2023-10-31T08:34:31;5.60;;;2.05;;
41881;SDS011;27562;47.524;12.404;2023-10-31T08:36:56;4.78;;;1.48;;
41881;SDS011;27562;47.524;12.404;2023-10-31T08:39:24;3.22;;;0.77;;
41881;SDS011;27562;47.524;12.404;2023-10-31T08:41:54;2.85;;;1.55;;
41881;SDS011;27562;47.524;12.404;2023-10-31T08:44:21;2.70;;;1.30;;
41881;SDS011;27562;47.524;12.404;2023-10-31T08:46:47;4.13;;;1.55;;
41881;SDS011;27562;47.524;12.404;2023-10-31T08:49:13;3.05;;;1.35;;
41881;SDS011;27562;47.524;12.404;2023-10-31T08:51:40;12.50;;;7.10;;
41881;SDS011;27562;47.524;12.404;2023-10-31T08:54:06;5.82;;;3.58;;
41881;SDS011;27562;47.524;12.404;2023-10-31T08:56:33;6.35;;;3.17;;
41881;SDS011;27562;47.524;12.404;2023-10-31T08:58:59;8.18;;;3.40;;
41881;SDS011;27562;47.524;12.404;2023-10-31T09:01:26;6.70;;;3.40;;
41881;SDS011;27562;47.524;12.404;2023-10-31T09:03:52;6.60;;;4.20;;
41881;SDS011;27562;47.524;12.404;2023-10-31T09:06:17;6.38;;;3.35;;
41881;SDS011;27562;47.524;12.404;2023-10-31T09:08:43;6.20;;;3.03;;
41881;SDS011;27562;47.524;12.404;2023-10-31T09:11:09;4.95;;;1.95;;
41881;SDS011;27562;47.524;12.404;2023-10-31T09:13:34;2.80;;;1.10;;
41881;SDS011;27562;47.524;12.404;2023-10-31T09:16:00;1.92;;;0.95;;
41881;SDS011;27562;47.524;12.404;2023-10-31T09:18:26;1.42;;;0.80;;
41881;SDS011;27562;47.524;12.404;2023-10-31T09:20:52;2.22;;;0.90;;
41881;SDS011;27562;47.524;12.404;2023-10-31T09:23:18;3.60;;;1.40;;
41881;SDS011;27562;47.524;12.404;2023-10-31T09:25:44;2.15;;;1.02;;
41881;SDS011;27562;47.524;12.404;2023-10-31T09:28:10;1.15;;;0.40;;
41881;SDS011;27562;47.524;12.404;2023-10-31T09:30:36;1.20;;;0.38;;
41881;SDS011;27562;47.524;12.404;2023-10-31T09:33:02;1.08;;;0.55;;
41881;SDS011;27562;47.524;12.404;2023-10-31T09:35:27;1.88;;;0.40;;
41881;SDS011;27562;47.524;12.404;2023-10-31T09:37:53;1.02;;;0.60;;
41881;SDS011;27562;47.524;12.404;2023-10-31T09:40:20;0.80;;;0.43;;
41881;SDS011;27562;47.524;12.404;2023-10-31T09:42:46;3.78;;;0.98;;
41881;SDS011;27562;47.524;12.404;2023-10-31T09:45:12;1.52;;;0.60;;
41881;SDS011;27562;47.524;12.404;2023-10-31T09:47:39;2.70;;;1.33;;
41881;SDS011;27562;47.524;12.404;2023-10-31T09:50:06;2.00;;;0.90;;
41881;SDS011;27562;47.524;12.404;2023-10-31T09:52:33;1.27;;;0.70;;
41881;SDS011;27562;47.524;12.404;2023-10-31T09:55:00;3.10;;;1.63;;
41881;SDS011;27562;47.524;12.404;2023-10-31T09:57:27;3.20;;;1.70;;
41881;SDS011;27562;47.524;12.404;2023-10-31T09:59:53;2.40;;;1.23;;
41881;SDS011;27562;47.524;12.404;2023-10-31T10:02:19;4.50;;;1.27;;
41881;SDS011;27562;47.524;12.404;2023-10-31T10:04:45;2.15;;;0.90;;
41881;SDS011;27562;47.524;12.404;2023-10-31T10:07:17;2.53;;;1.00;;
41881;SDS011;27562;47.524;12.404;2023-10-31T10:09:43;2.70;;;0.80;;
41881;SDS011;27562;47.524;12.404;2023-10-31T10:12:15;1.38;;;0.55;;
41881;SDS011;27562;47.524;12.404;2023-10-31T10:14:41;1.00;;;0.50;;
41881;SDS011;27562;47.524;12.404;2023-10-31T10:17:22;0.35;;;0.20;;
41881;SDS011;27562;47.524;12.404;2023-10-31T10:22:41;3.00;;;0.77;;
41881;SDS011;27562;47.524;12.404;2023-10-31T10:25:12;1.80;;;0.55;;
41881;SDS011;27562;47.524;12.404;2023-10-31T10:27:42;1.98;;;0.80;;
41881;SDS011;27562;47.524;12.404;2023-10-31T10:30:09;1.30;;;0.50;;
41881;SDS011;27562;47.524;12.404;2023-10-31T10:32:35;1.50;;;0.60;;
41881;SDS011;27562;47.524;12.404;2023-10-31T10:35:00;6.35;;;3.35;;
41881;SDS011;27562;47.524;12.404;2023-10-31T10:37:27;5.00;;;2.75;;
41881;SDS011;27562;47.524;12.404;2023-10-31T10:39:53;4.20;;;1.70;;
41881;SDS011;27562;47.524;12.404;2023-10-31T10:42:21;2.30;;;1.00;;
41881;SDS011;27562;47.524;12.404;2023-10-31T10:45:10;1.13;;;0.52;;
41881;SDS011;27562;47.524;12.404;2023-10-31T10:47:39;2.20;;;0.80;;
41881;SDS011;27562;47.524;12.404;2023-10-31T10:50:06;1.90;;;0.60;;
41881;SDS011;27562;47.524;12.404;2023-10-31T10:52:48;0.35;;;0.17;;
41881;SDS011;27562;47.524;12.404;2023-10-31T10:55:20;3.67;;;1.40;;
41881;SDS011;27562;47.524;12.404;2023-10-31T10:58:03;3.53;;;1.70;;
41881;SDS011;27562;47.524;12.404;2023-10-31T11:00:32;2.00;;;1.05;;
41881;SDS011;27562;47.524;12.404;2023-10-31T11:02:59;2.33;;;0.70;;
41881;SDS011;27562;47.524;12.404;2023-10-31T11:05:26;1.42;;;0.82;;
41881;SDS011;27562;47.524;12.404;2023-10-31T11:07:52;2.67;;;1.48;;
41881;SDS011;27562;47.524;12.404;2023-10-31T11:10:20;2.53;;;1.15;;
41881;SDS011;27562;47.524;12.404;2023-10-31T11:12:46;1.77;;;0.60;;
41881;SDS011;27562;47.524;12.404;2023-10-31T11:15:13;2.58;;;0.60;;
41881;SDS011;27562;47.524;12.404;2023-10-31T11:17:44;2.25;;;0.60;;
41881;SDS011;27562;47.524;12.404;2023-10-31T11:20:12;1.55;;;0.60;;
41881;SDS011;27562;47.524;12.404;2023-10-31T11:22:40;1.17;;;0.63;;
41881;SDS011;27562;47.524;12.404;2023-10-31T11:25:08;2.45;;;1.40;;
41881;SDS011;27562;47.524;12.404;2023-10-31T11:27:35;1.85;;;1.13;;
41881;SDS011;27562;47.524;12.404;2023-10-31T11:30:05;1.65;;;0.70;;
41881;SDS011;27562;47.524;12.404;2023-10-31T11:32:52;0.98;;;0.47;;
41881;SDS011;27562;47.524;12.404;2023-10-31T11:35:19;4.97;;;2.30;;
41881;SDS011;27562;47.524;12.404;2023-10-31T11:38:00;3.60;;;2.17;;
41881;SDS011;27562;47.524;12.404;2023-10-31T11:40:34;1.33;;;0.73;;
41881;SDS011;27562;47.524;12.404;2023-10-31T11:43:11;1.35;;;0.70;;
41881;SDS011;27562;47.524;12.404;2023-10-31T11:45:40;2.60;;;0.80;;
41881;SDS011;27562;47.524;12.404;2023-10-31T11:48:12;1.25;;;0.90;;
41881;SDS011;27562;47.524;12.404;2023-10-31T11:50:38;2.55;;;1.50;;
41881;SDS011;27562;47.524;12.404;2023-10-31T11:53:11;1.80;;;0.70;;
41881;SDS011;27562;47.524;12.404;2023-10-31T11:55:41;1.45;;;0.75;;
41881;SDS011;27562;47.524;12.404;2023-10-31T11:58:26;1.27;;;0.75;;
41881;SDS011;27562;47.524;12.404;2023-10-31T12:00:52;2.00;;;0.70;;
41881;SDS011;27562;47.524;12.404;2023-10-31T12:03:25;2.33;;;1.13;;
41881;SDS011;27562;47.524;12.404;2023-10-31T12:05:51;6.88;;;3.30;;
41881;SDS011;27562;47.524;12.404;2023-10-31T12:08:43;5.80;;;2.47;;
41881;SDS011;27562;47.524;12.404;2023-10-31T12:11:12;5.88;;;2.30;;
41881;SDS011;27562;47.524;12.404;2023-10-31T12:13:42;2.20;;;1.40;;
41881;SDS011;27562;47.524;12.404;2023-10-31T12:16:19;3.35;;;2.78;;
41881;SDS011;27562;47.524;12.404;2023-10-31T12:18:53;3.20;;;0.90;;
41881;SDS011;27562;47.524;12.404;2023-10-31T12:24:16;2.15;;;0.50;;
41881;SDS011;27562;47.524;12.404;2023-10-31T12:26:43;1.33;;;0.60;;
41881;SDS011;27562;47.524;12.404;2023-10-31T12:31:40;2.35;;;1.00;;
41881;SDS011;27562;47.524;12.404;2023-10-31T12:34:24;2.55;;;1.30;;
41881;SDS011;27562;47.524;12.404;2023-10-31T12:36:50;1.92;;;0.93;;
41881;SDS011;27562;47.524;12.404;2023-10-31T12:39:22;1.92;;;0.90;;
41881;SDS011;27562;47.524;12.404;2023-10-31T12:41:50;5.43;;;1.80;;
41881;SDS011;27562;47.524;12.404;2023-10-31T12:44:19;4.78;;;2.90;;
41881;SDS011;27562;47.524;12.404;2023-10-31T12:46:49;2.45;;;1.50;;
41881;SDS011;27562;47.524;12.404;2023-10-31T12:49:18;3.63;;;1.92;;
41881;SDS011;27562;47.524;12.404;2023-10-31T12:54:40;1.45;;;0.70;;
41881;SDS011;27562;47.524;12.404;2023-10-31T12:57:06;1.48;;;0.70;;
41881;SDS011;27562;47.524;12.404;2023-10-31T12:59:33;1.17;;;0.60;;
41881;SDS011;27562;47.524;12.404;2023-10-31T13:02:01;1.30;;;0.60;;
41881;SDS011;27562;47.524;12.404;2023-10-31T13:04:29;1.65;;;0.73;;
41881;SDS011;27562;47.524;12.404;2023-10-31T13:06:57;2.92;;;0.70;;
41881;SDS011;27562;47.524;12.404;2023-10-31T13:09:22;1.58;;;0.70;;
41881;SDS011;27562;47.524;12.404;2023-10-31T13:11:48;1.92;;;0.90;;
41881;SDS011;27562;47.524;12.404;2023-10-31T13:14:14;1.55;;;0.75;;
41881;SDS011;27562;47.524;12.404;2023-10-31T13:16:39;1.15;;;0.90;;
41881;SDS011;27562;47.524;12.404;2023-10-31T13:19:05;1.98;;;0.90;;
41881;SDS011;27562;47.524;12.404;2023-10-31T13:21:31;1.67;;;0.60;;
41881;SDS011;27562;47.524;12.404;2023-10-31T13:23:56;1.70;;;0.80;;
41881;SDS011;27562;47.524;12.404;2023-10-31T13:26:22;1.75;;;0.80;;
41881;SDS011;27562;47.524;12.404;2023-10-31T13:28:48;2.17;;;1.00;;
41881;SDS011;27562;47.524;12.404;2023-10-31T13:31:13;2.95;;;1.30;;
41881;SDS011;27562;47.524;12.404;2023-10-31T13:33:39;6.70;;;2.38;;
41881;SDS011;27562;47.524;12.404;2023-10-31T13:36:05;2.60;;;1.50;;
41881;SDS011;27562;47.524;12.404;2023-10-31T13:38:31;2.40;;;1.35;;
41881;SDS011;27562;47.524;12.404;2023-10-31T13:40:56;2.08;;;1.10;;
41881;SDS011;27562;47.524;12.404;2023-10-31T13:43:22;2.40;;;1.23;;
41881;SDS011;27562;47.524;12.404;2023-10-31T13:45:49;6.50;;;3.40;;
41881;SDS011;27562;47.524;12.404;2023-10-31T13:48:14;7.28;;;3.60;;
41881;SDS011;27562;47.524;12.404;2023-10-31T13:50:40;9.35;;;5.30;;
41881;SDS011;27562;47.524;12.404;2023-10-31T13:53:06;8.88;;;5.63;;
41881;SDS011;27562;47.524;12.404;2023-10-31T13:55:32;4.78;;;2.67;;
41881;SDS011;27562;47.524;12.404;2023-10-31T13:57:58;3.42;;;1.20;;
41881;SDS011;27562;47.524;12.404;2023-10-31T14:00:24;1.80;;;0.80;;
41881;SDS011;27562;47.524;12.404;2023-10-31T14:02:49;2.65;;;1.08;;
41881;SDS011;27562;47.524;12.404;2023-10-31T14:05:15;2.28;;;1.02;;
41881;SDS011;27562;47.524;12.404;2023-10-31T14:07:41;2.13;;;1.13;;
41881;SDS011;27562;47.524;12.404;2023-10-31T14:10:07;2.65;;;1.10;;
41881;SDS011;27562;47.524;12.404;2023-10-31T14:12:33;2.35;;;0.80;;
41881;SDS011;27562;47.524;12.404;2023-10-31T14:14:58;1.40;;;0.70;;
41881;SDS011;27562;47.524;12.404;2023-10-31T14:17:24;2.85;;;1.20;;
41881;SDS011;27562;47.524;12.404;2023-10-31T14:19:50;2.10;;;0.90;;
41881;SDS011;27562;47.524;12.404;2023-10-31T14:22:15;1.60;;;0.70;;
41881;SDS011;27562;47.524;12.404;2023-10-31T14:24:41;2.00;;;1.13;;
41881;SDS011;27562;47.524;12.404;2023-10-31T14:27:06;1.80;;;0.98;;
41881;SDS011;27562;47.524;12.404;2023-10-31T14:29:32;2.40;;;0.80;;
41881;SDS011;27562;47.524;12.404;2023-10-31T14:32:05;2.15;;;1.00;;
41881;SDS011;27562;47.524;12.404;2023-10-31T14:34:31;1.95;;;1.00;;
41881;SDS011;27562;47.524;12.404;2023-10-31T14:36:57;2.05;;;1.00;;
41881;SDS011;27562;47.524;12.404;2023-10-31T14:39:22;2.58;;;1.10;;
41881;SDS011;27562;47.524;12.404;2023-10-31T14:41:48;10.70;;;5.20;;
41881;SDS011;27562;47.524;12.404;2023-10-31T14:44:14;7.35;;;3.13;;